createdAt,value
2018-02-20T06:02:45.434Z,34.58
2018-02-20T06:05:13.491Z,33.03
2018-02-20T06:07:42.476Z,35.15
2018-02-20T06:10:09.981Z,34.10
2018-02-20T06:12:39.161Z,35.15
2018-02-20T06:15:08.043Z,34.70
2018-02-20T06:47:38.457Z,39.65
2018-02-20T06:50:05.966Z,38.45
2018-02-20T06:52:33.458Z,37.70
2018-02-20T06:55:01.024Z,37.90
2018-02-20T06:57:28.597Z,36.38
2018-02-20T06:59:56.106Z,32.95
2018-02-20T07:02:23.633Z,35.92
2018-02-20T07:04:51.252Z,35.90
2018-02-20T07:07:18.754Z,35.80
2018-02-20T07:09:46.259Z,35.47
2018-02-20T07:12:14.007Z,36.22
2018-02-20T07:14:41.496Z,37.47
2018-02-20T07:17:11.012Z,35.88
2018-02-20T07:19:38.530Z,36.10
2018-02-20T07:22:06.849Z,34.53
2018-02-20T07:24:34.364Z,36.00
2018-02-20T07:27:01.857Z,36.45
2018-02-20T07:29:29.392Z,35.17
2018-02-20T07:31:56.917Z,36.08
2018-02-20T07:34:24.454Z,35.85
2018-02-20T07:36:51.970Z,34.50
2018-02-20T07:39:19.464Z,35.58
2018-02-20T07:41:47.158Z,35.78
2018-02-20T07:44:14.657Z,36.28
2018-02-20T07:46:42.185Z,36.42
2018-02-20T07:49:09.683Z,36.33
2018-02-20T07:51:37.201Z,36.28
2018-02-20T07:54:04.800Z,35.38
2018-02-20T07:56:32.317Z,35.55
2018-02-20T07:58:59.823Z,49.22
2018-02-20T08:01:28.483Z,39.92
2018-02-20T08:03:56.769Z,37.80
2018-02-20T08:06:24.336Z,38.58
2018-02-20T08:08:51.874Z,36.25
2018-02-20T08:11:20.152Z,36.38
2018-02-20T08:13:48.437Z,34.80
2018-02-20T08:16:16.558Z,35.42
2018-02-20T08:18:44.064Z,36.13
2018-02-20T08:21:11.625Z,35.38
2018-02-20T08:23:39.173Z,36.65
2018-02-20T08:26:06.830Z,36.22
2018-02-20T08:28:35.222Z,37.85
2018-02-20T08:31:03.388Z,37.45
2018-02-20T08:33:31.650Z,36.30
2018-02-20T08:35:59.260Z,37.38
2018-02-20T08:38:26.754Z,38.42
2018-02-20T08:40:54.360Z,37.08
2018-02-20T08:43:22.089Z,36.75
2018-02-20T08:45:50.356Z,36.15
2018-02-20T08:48:18.675Z,37.67
2018-02-20T08:50:46.213Z,38.50
2018-02-20T08:53:13.757Z,38.78
2018-02-20T08:55:42.186Z,38.67
2018-02-20T08:58:09.829Z,38.57
2018-02-20T09:00:37.391Z,36.95
2018-02-20T09:03:05.812Z,39.20
2018-02-20T09:05:33.312Z,37.40
2018-02-20T09:08:01.621Z,38.43
2018-02-20T09:10:29.425Z,38.73
2018-02-20T09:12:58.515Z,38.33
2018-02-20T09:15:26.404Z,38.20
2018-02-20T09:17:54.825Z,38.93
2018-02-20T09:20:22.347Z,38.47
2018-02-20T09:22:51.361Z,39.50
2018-02-20T09:25:19.980Z,37.70
2018-02-20T09:27:47.805Z,37.07
2018-02-20T09:30:16.432Z,37.83
2018-02-20T09:32:44.047Z,39.03
2018-02-20T09:35:13.258Z,38.33
2018-02-20T09:37:40.786Z,39.43
2018-02-20T09:40:09.066Z,39.27
2018-02-20T09:42:37.314Z,37.30
2018-02-20T09:45:05.330Z,37.13
2018-02-20T09:47:32.841Z,36.40
2018-02-20T09:50:00.930Z,38.27
2018-02-20T09:52:30.692Z,34.60
2018-02-20T09:54:59.561Z,37.33
2018-02-20T09:57:28.159Z,39.90
2018-02-20T09:59:57.649Z,39.03
2018-02-20T10:02:25.242Z,39.90
2018-02-20T10:04:59.073Z,39.17
2018-02-20T10:07:26.857Z,37.10
2018-02-20T10:09:54.453Z,35.73
2018-02-20T10:12:22.726Z,36.20
2018-02-20T10:14:50.220Z,37.80
2018-02-20T10:17:18.514Z,38.73
2018-02-20T10:19:50.409Z,35.90
2018-02-20T10:22:19.549Z,33.07
2018-02-20T10:24:48.916Z,30.83
2018-02-20T10:27:17.778Z,30.83
2018-02-20T10:29:45.370Z,33.03
2018-02-20T10:32:12.882Z,31.70
2018-02-20T10:34:43.892Z,23.83
2018-02-20T10:37:14.225Z,29.43
2018-02-20T10:39:42.681Z,33.37
2018-02-20T10:42:11.540Z,30.47
2018-02-20T10:44:39.862Z,32.73
2018-02-20T10:47:07.451Z,34.77
2018-02-20T10:49:36.266Z,32.03
2018-02-20T10:52:04.617Z,27.60
2018-02-20T10:54:33.700Z,31.97
2018-02-20T10:57:01.297Z,33.03
2018-02-20T10:59:29.499Z,29.80
2018-02-20T11:01:58.951Z,31.97
2018-02-20T11:04:27.026Z,32.90
2018-02-20T11:06:54.573Z,35.30
2018-02-20T11:09:22.131Z,35.57
2018-02-20T11:11:50.401Z,35.13
2018-02-20T11:14:17.944Z,31.73
2018-02-20T11:16:45.506Z,30.53
2018-02-20T11:19:13.021Z,30.90
2018-02-20T11:21:40.775Z,29.17
2018-02-20T11:24:09.034Z,28.63
2018-02-20T11:26:36.594Z,28.93
2018-02-20T11:29:04.279Z,31.23
2018-02-20T11:31:31.815Z,33.27
2018-02-20T11:33:59.424Z,35.33
2018-02-20T11:36:27.655Z,36.97
2018-02-20T11:38:56.677Z,33.80
2018-02-20T11:41:24.193Z,33.40
2018-02-20T11:43:53.904Z,35.00
2018-02-20T11:46:22.910Z,32.97
2018-02-20T11:48:51.195Z,37.37
2018-02-20T11:51:19.455Z,37.53
2018-02-20T11:53:46.974Z,36.97
2018-02-20T11:56:14.855Z,37.13
2018-02-20T11:58:42.396Z,37.63
2018-02-20T12:01:10.455Z,39.27
2018-02-20T12:03:38.000Z,38.23
2018-02-20T12:06:05.751Z,37.13
2018-02-20T12:08:33.404Z,37.17
2018-02-20T12:11:01.692Z,37.53
2018-02-20T12:13:29.197Z,37.30
2018-02-20T12:15:56.716Z,36.23
2018-02-20T12:18:24.201Z,35.97
2018-02-20T12:20:51.724Z,36.93
2018-02-20T12:23:19.229Z,38.80
2018-02-20T12:25:46.864Z,36.30
2018-02-20T12:28:14.366Z,37.77
2018-02-20T12:30:41.949Z,37.77
2018-02-20T12:33:10.629Z,36.00
2018-02-20T12:35:38.123Z,36.57
2018-02-20T12:38:05.637Z,36.87
2018-02-20T12:40:33.137Z,36.23
2018-02-20T12:43:00.669Z,36.47
2018-02-20T12:45:28.172Z,32.20
2018-02-20T12:47:55.864Z,33.77
2018-02-20T12:50:23.316Z,34.17
2018-02-20T12:52:51.740Z,32.63
2018-02-20T12:55:20.122Z,31.47
2018-02-20T12:57:47.619Z,32.53
2018-02-20T13:00:15.172Z,33.87
2018-02-20T13:02:42.817Z,34.07
2018-02-20T13:05:10.343Z,32.80
2018-02-20T13:07:37.865Z,30.40
2018-02-20T13:10:05.384Z,33.13
2018-02-20T13:12:32.982Z,32.40
2018-02-20T13:15:00.488Z,33.97
2018-02-20T13:17:28.015Z,35.50
2018-02-20T13:19:55.526Z,32.63
2018-02-20T13:22:23.128Z,32.27
2018-02-20T13:24:50.666Z,30.97
2018-02-20T14:03:56.991Z,32.03
2018-02-20T14:06:24.904Z,34.23
2018-02-20T14:08:52.439Z,31.03
2018-02-20T14:11:19.953Z,35.60
2018-02-20T14:13:47.716Z,38.83
2018-02-20T14:16:15.610Z,31.83
2018-02-20T14:18:43.211Z,31.23
2018-02-20T14:21:10.724Z,29.47
2018-02-20T14:23:38.226Z,29.43
2018-02-20T14:26:06.020Z,30.13
2018-02-20T14:28:33.542Z,34.43
2018-02-20T14:31:01.258Z,36.50
2018-02-20T14:33:28.774Z,30.63
2018-02-20T14:35:56.326Z,25.60
2018-02-20T14:38:23.870Z,25.63
2018-02-20T14:40:51.384Z,24.73
2018-02-20T14:43:19.169Z,26.20
2018-02-20T14:45:46.659Z,26.30
2018-02-20T14:48:14.177Z,28.07
2018-02-20T14:50:41.685Z,27.37
2018-02-20T14:53:09.307Z,27.87
2018-02-20T14:55:36.910Z,27.30
2018-02-20T14:58:04.460Z,27.67
2018-02-20T15:00:32.862Z,30.83
2018-02-20T15:03:01.360Z,31.70
2018-02-20T15:05:30.048Z,30.30
2018-02-20T15:07:57.602Z,29.27
2018-02-20T15:10:26.844Z,27.03
2018-02-20T15:12:54.490Z,28.17
2018-02-20T15:15:22.194Z,29.33
2018-02-20T15:17:49.720Z,32.40
2018-02-20T15:20:18.020Z,34.10
2018-02-20T15:22:45.538Z,35.05
2018-02-20T15:25:13.041Z,34.40
2018-02-20T15:27:40.570Z,38.10
2018-02-20T15:30:08.840Z,36.17
2018-02-20T15:32:36.394Z,38.92
2018-02-20T15:35:03.945Z,37.80
2018-02-20T15:37:32.363Z,38.58
2018-02-20T15:39:59.922Z,36.95
2018-02-20T15:42:27.457Z,39.78
2018-02-20T15:44:55.028Z,36.97
2018-02-20T15:47:23.416Z,36.42
2018-02-20T15:49:50.981Z,40.83
2018-02-20T15:52:18.511Z,39.88
2018-02-20T15:54:47.547Z,40.38
2018-02-20T15:57:15.977Z,40.75
2018-02-20T15:59:46.027Z,40.28
2018-02-20T16:02:13.543Z,39.83
2018-02-20T16:04:41.866Z,39.15
2018-02-20T16:07:09.384Z,41.00
2018-02-20T16:09:37.012Z,39.13
2018-02-20T16:12:04.550Z,40.67
2018-02-20T16:14:32.826Z,42.83
2018-02-20T16:17:01.386Z,58.55
2018-02-20T16:19:28.941Z,46.28
2018-02-20T16:21:56.832Z,41.85
2018-02-20T16:24:24.366Z,39.67
2018-02-20T16:26:51.894Z,42.35
2018-02-20T16:29:19.426Z,40.78
2018-02-20T16:31:47.268Z,43.10
2018-02-20T16:34:14.778Z,42.22
2018-02-20T16:36:42.284Z,42.60
2018-02-20T16:39:09.867Z,43.05
2018-02-20T16:41:37.404Z,45.33
2018-02-20T16:44:05.051Z,42.80
2018-02-20T16:46:32.595Z,46.97
2018-02-20T16:49:00.238Z,47.22
2018-02-20T16:51:27.776Z,46.28
2018-02-20T16:53:55.276Z,45.80
2018-02-20T16:56:22.807Z,45.80
2018-02-20T16:58:50.348Z,45.30
2018-02-20T17:01:17.854Z,44.95
2018-02-20T17:03:45.379Z,47.47
2018-02-20T17:06:14.263Z,45.28
2018-02-20T17:08:41.804Z,45.70
2018-02-20T17:11:09.359Z,46.65
2018-02-20T17:13:36.874Z,44.88
2018-02-20T17:16:04.380Z,46.90
2018-02-20T17:18:31.915Z,46.00
2018-02-20T17:20:59.590Z,44.83
2018-02-20T17:23:27.765Z,50.47
2018-02-20T17:25:55.271Z,45.45
2018-02-20T17:28:22.797Z,46.85
2018-02-20T17:30:50.310Z,46.97
2018-02-20T17:33:19.333Z,45.88
2018-02-20T17:35:46.849Z,46.90
2018-02-20T17:38:14.349Z,45.67
2018-02-20T17:40:41.946Z,50.08
2018-02-20T17:43:09.469Z,49.92
2018-02-20T17:45:37.048Z,49.47
2018-02-20T17:48:04.615Z,50.35
2018-02-20T17:50:32.244Z,50.58
2018-02-20T17:52:59.756Z,52.05
2018-02-20T17:55:27.269Z,53.90
2018-02-20T17:57:54.783Z,51.80
2018-02-20T18:00:22.296Z,53.72
2018-02-20T18:02:49.866Z,53.05
2018-02-20T18:05:17.602Z,52.17
2018-02-20T18:07:46.283Z,52.83
2018-02-20T18:10:13.795Z,53.63
2018-02-20T18:12:42.008Z,53.40
2018-02-20T18:15:10.400Z,50.42
2018-02-20T18:17:37.944Z,53.25
2018-02-20T18:20:07.044Z,53.50
2018-02-20T18:22:36.535Z,54.78
2018-02-20T18:25:10.370Z,52.75
2018-02-20T18:27:37.888Z,51.05
2018-02-20T18:30:06.607Z,55.58
2018-02-20T18:32:35.699Z,74.97
2018-02-20T18:35:04.764Z,58.90
2018-02-20T18:37:32.347Z,56.85
2018-02-20T18:39:59.887Z,55.30
2018-02-20T18:42:27.395Z,54.50
2018-02-20T18:44:55.059Z,54.50
2018-02-20T18:47:22.578Z,55.00
2018-02-20T18:49:50.295Z,53.97
2018-02-20T18:52:17.811Z,53.15
2018-02-20T18:54:46.177Z,55.00
2018-02-20T18:57:13.668Z,52.70
2018-02-20T19:53:37.928Z,50.65
2018-02-20T19:56:06.378Z,54.10
2018-02-20T19:58:33.913Z,53.92
2018-02-20T20:01:02.142Z,55.20
2018-02-20T20:03:30.239Z,54.13
2018-02-20T20:05:58.690Z,51.92
2018-02-20T20:08:27.412Z,52.95
2018-02-20T20:10:54.953Z,50.50
2018-02-20T20:24:25.626Z,54.22
2018-02-20T20:26:53.155Z,53.60
2018-02-20T20:29:21.616Z,50.67
2018-02-20T20:31:50.045Z,49.72
2018-02-20T20:34:18.831Z,50.53
2018-02-20T20:36:48.635Z,49.05
2018-02-20T20:39:16.271Z,50.03
2018-02-20T20:41:43.866Z,52.10
2018-02-20T20:44:11.376Z,50.88
2018-02-20T20:46:39.668Z,52.47
2018-02-20T20:49:07.214Z,51.75
2018-02-20T20:51:36.114Z,47.38
2018-02-20T20:54:04.841Z,44.78
2018-02-20T20:56:32.492Z,49.58
2018-02-20T20:59:00.107Z,49.50
2018-02-20T21:01:28.491Z,48.53
2018-02-20T21:03:55.995Z,45.28
2018-02-20T21:06:23.633Z,48.67
2018-02-20T21:08:51.147Z,49.30
2018-02-20T21:11:18.661Z,47.92
2018-02-20T21:13:46.178Z,48.78
2018-02-20T21:16:13.687Z,47.67
2018-02-20T21:18:41.333Z,48.28
2018-02-20T21:21:08.860Z,48.85
2018-02-20T21:23:37.160Z,48.10
2018-02-20T21:26:04.656Z,47.40
2018-02-20T21:28:32.193Z,46.92
2018-02-20T21:30:59.728Z,43.85
2018-02-20T21:33:27.260Z,43.28
2018-02-20T21:35:54.784Z,43.95
2018-02-20T21:38:22.290Z,45.80
2018-02-20T21:40:49.968Z,44.95
2018-02-20T21:43:17.819Z,42.75
2018-02-20T21:45:46.229Z,44.38
2018-02-20T21:48:13.758Z,43.33
2018-02-20T21:50:42.066Z,44.40
2018-02-20T21:53:09.591Z,44.28
2018-02-20T21:55:37.980Z,45.63
2018-02-20T21:58:05.509Z,47.05
2018-02-20T22:00:33.763Z,46.75
2018-02-20T22:03:01.295Z,46.90
2018-02-20T22:05:28.824Z,46.05
2018-02-20T22:07:56.357Z,44.70
2018-02-20T22:10:23.864Z,44.88
2018-02-20T22:12:51.354Z,44.83
2018-02-20T22:15:18.897Z,46.03
2018-02-20T22:17:46.394Z,45.88
2018-02-20T22:20:13.929Z,47.58
2018-02-20T22:22:41.425Z,46.60
2018-02-20T22:25:08.923Z,48.63
2018-02-20T22:27:36.463Z,49.35
